createdAt,value
2019-05-01T00:02:16.638Z,39.30
2019-05-01T00:04:42.861Z,39.40
2019-05-01T00:07:09.095Z,39.40
2019-05-01T00:09:35.331Z,39.30
2019-05-01T00:12:01.552Z,39.40
2019-05-01T00:14:27.794Z,39.50
2019-05-01T00:16:54.017Z,39.30
2019-05-01T00:19:20.236Z,39.50
2019-05-01T00:21:46.495Z,39.30
2019-05-01T00:24:12.709Z,39.30
2019-05-01T00:26:38.937Z,39.50
2019-05-01T00:29:05.157Z,39.30
2019-05-01T00:31:31.376Z,39.40
2019-05-01T00:33:57.603Z,39.30
2019-05-01T00:36:23.843Z,39.40
2019-05-01T00:38:50.064Z,39.30
2019-05-01T00:41:16.293Z,39.40
2019-05-01T00:43:42.532Z,39.20
2019-05-01T00:46:08.767Z,39.30
2019-05-01T00:48:35.145Z,39.20
2019-05-01T00:51:01.621Z,39.40
2019-05-01T00:53:27.843Z,39.20
2019-05-01T00:55:54.075Z,39.10
2019-05-01T00:58:20.311Z,39.20
2019-05-01T01:00:46.533Z,39.30
2019-05-01T01:03:12.754Z,39.20
2019-05-01T01:05:38.947Z,39.30
2019-05-01T01:08:05.208Z,39.20
2019-05-01T01:10:31.438Z,39.20
2019-05-01T01:12:57.667Z,39.20
2019-05-01T01:15:23.900Z,39.10
2019-05-01T01:17:50.081Z,39.20
2019-05-01T01:20:16.348Z,39.10
2019-05-01T01:22:42.572Z,39.10
2019-05-01T01:25:08.806Z,39.20
2019-05-01T01:27:35.032Z,39.20
2019-05-01T01:30:01.267Z,39.20
2019-05-01T01:32:27.501Z,39.10
2019-05-01T01:34:53.729Z,39.20
2019-05-01T01:37:19.938Z,39.30
2019-05-01T01:39:46.168Z,39.20
2019-05-01T01:42:12.408Z,39.20
2019-05-01T01:44:38.641Z,39.20
2019-05-01T01:47:04.854Z,39.10
2019-05-01T01:49:31.108Z,39.00
2019-05-01T01:51:57.309Z,39.10
2019-05-01T01:54:23.545Z,39.10
2019-05-01T01:56:49.771Z,39.20
2019-05-01T01:59:16.005Z,39.10
2019-05-01T02:01:42.220Z,39.10
2019-05-01T02:04:08.499Z,39.10
2019-05-01T02:06:34.683Z,39.10
2019-05-01T02:09:00.903Z,39.10
2019-05-01T02:11:27.139Z,39.20
2019-05-01T02:13:53.373Z,39.10
2019-05-01T02:16:19.595Z,39.20
2019-05-01T02:18:45.818Z,39.00
2019-05-01T02:21:12.045Z,39.10
2019-05-01T02:23:38.273Z,38.90
2019-05-01T02:26:04.453Z,39.10
2019-05-01T02:28:30.728Z,39.00
2019-05-01T02:30:56.963Z,39.00
2019-05-01T02:33:23.137Z,38.90
2019-05-01T02:35:49.434Z,39.00
2019-05-01T02:38:15.654Z,39.10
2019-05-01T02:40:41.876Z,39.00
2019-05-01T02:43:08.094Z,39.00
2019-05-01T02:45:34.321Z,38.80
2019-05-01T02:48:00.564Z,39.00
2019-05-01T02:50:26.781Z,38.90
2019-05-01T02:52:53.146Z,38.90
2019-05-01T02:55:19.641Z,38.90
2019-05-01T02:57:45.868Z,38.90
2019-05-01T03:00:12.130Z,38.90
2019-05-01T03:02:38.355Z,38.80
2019-05-01T03:05:04.554Z,38.90
2019-05-01T03:07:30.815Z,38.70
2019-05-01T03:09:57.005Z,38.90
2019-05-01T03:12:23.253Z,38.70
2019-05-01T03:14:49.466Z,38.90
2019-05-01T03:17:15.680Z,38.80
2019-05-01T03:19:41.922Z,38.80
2019-05-01T03:22:08.160Z,38.80
2019-05-01T03:24:34.328Z,38.80
2019-05-01T03:27:00.644Z,38.90
2019-05-01T03:29:26.830Z,38.70
2019-05-01T03:32:15.595Z,38.70
2019-05-01T03:34:19.317Z,38.80
2019-05-01T03:36:46.748Z,38.80
2019-05-01T03:39:12.975Z,38.80
2019-05-01T03:41:39.191Z,38.70
2019-05-01T03:44:05.417Z,38.70
2019-05-01T03:46:31.641Z,38.70
2019-05-01T03:48:57.890Z,38.70
2019-05-01T03:51:24.102Z,38.70
2019-05-01T03:53:50.329Z,38.70
2019-05-01T03:56:16.571Z,38.80
2019-05-01T03:58:42.787Z,38.70
2019-05-01T04:01:09.025Z,38.70
2019-05-01T04:03:35.250Z,38.70
2019-05-01T04:06:01.472Z,39.50
2019-05-01T04:08:27.709Z,38.70
2019-05-01T04:10:53.928Z,38.80
2019-05-01T04:13:20.149Z,38.70
2019-05-01T04:15:46.396Z,38.70
2019-05-01T04:18:13.015Z,38.70
2019-05-01T04:20:39.234Z,38.70
2019-05-01T04:23:05.513Z,38.60
2019-05-01T04:25:31.704Z,38.70
2019-05-01T04:27:58.897Z,38.60
2019-05-01T04:30:24.174Z,38.60
2019-05-01T04:32:53.104Z,38.60
2019-05-01T04:35:16.610Z,38.60
2019-05-01T04:37:42.830Z,38.60
2019-05-01T04:40:09.066Z,38.60
2019-05-01T04:42:35.294Z,38.70
2019-05-01T04:45:01.521Z,38.60
2019-05-01T04:47:27.763Z,38.70
2019-05-01T04:49:53.962Z,38.70
2019-05-01T04:52:20.188Z,38.70
2019-05-01T04:54:46.418Z,38.50
2019-05-01T04:57:12.640Z,38.70
2019-05-01T04:59:38.870Z,38.70
2019-05-01T05:02:05.110Z,38.60
2019-05-01T05:04:31.330Z,38.70
2019-05-01T05:06:57.611Z,38.70
2019-05-01T05:09:23.781Z,38.70
2019-05-01T05:11:50.005Z,38.60
2019-05-01T05:14:16.233Z,38.70
2019-05-01T05:16:42.461Z,38.80
2019-05-01T05:19:08.690Z,38.70
2019-05-01T05:21:34.913Z,38.80
2019-05-01T05:24:01.145Z,38.70
2019-05-01T05:26:27.380Z,38.70
2019-05-01T05:28:53.626Z,38.70
2019-05-01T05:31:19.829Z,38.70
2019-05-01T05:33:46.053Z,38.70
2019-05-01T05:36:12.281Z,38.80
2019-05-01T05:38:38.502Z,38.80
2019-05-01T05:41:04.734Z,38.70
2019-05-01T05:43:30.961Z,38.80
2019-05-01T05:45:57.186Z,38.80
2019-05-01T05:48:23.409Z,38.80
2019-05-01T05:50:50.087Z,38.80
2019-05-01T05:53:16.279Z,38.80
2019-05-01T05:55:42.505Z,38.90
2019-05-01T05:58:08.734Z,38.90
2019-05-01T06:00:36.181Z,38.80
2019-05-01T06:03:02.412Z,38.90
2019-05-01T06:05:28.643Z,38.90
2019-05-01T06:07:54.877Z,38.90
2019-05-01T06:10:23.188Z,38.90
2019-05-01T06:12:48.590Z,38.90
2019-05-01T06:15:13.548Z,39.00
2019-05-01T06:17:39.777Z,39.00
2019-05-01T06:20:06.043Z,38.90
2019-05-01T06:22:32.241Z,39.00
2019-05-01T06:24:58.460Z,38.90
2019-05-01T06:27:24.690Z,39.00
2019-05-01T06:29:50.913Z,38.90
2019-05-01T06:32:17.140Z,39.00
2019-05-01T06:34:43.368Z,38.90
2019-05-01T06:37:09.598Z,39.70
2019-05-01T06:39:35.819Z,39.00
2019-05-01T06:42:02.072Z,39.10
2019-05-01T06:44:28.279Z,39.00
2019-05-01T06:46:58.214Z,39.10
2019-05-01T06:49:24.116Z,39.70
2019-05-01T06:51:48.092Z,39.00
2019-05-01T06:54:16.102Z,39.10
2019-05-01T06:56:39.412Z,39.10
2019-05-01T06:59:05.643Z,39.20
2019-05-01T07:01:31.864Z,39.10
2019-05-01T07:04:03.618Z,39.30
2019-05-01T07:06:26.072Z,39.20
2019-05-01T07:08:50.958Z,39.10
2019-05-01T07:11:17.172Z,39.10
2019-05-01T07:13:43.412Z,39.20
2019-05-01T07:16:09.660Z,39.10
2019-05-01T07:18:36.693Z,39.20
2019-05-01T07:21:02.917Z,39.20
2019-05-01T07:23:29.141Z,39.30
2019-05-01T07:25:55.356Z,39.30
2019-05-01T07:28:21.591Z,39.30
2019-05-01T07:30:49.962Z,39.40
2019-05-01T07:33:16.626Z,39.20
2019-05-01T07:35:40.257Z,39.90
2019-05-01T07:38:06.497Z,39.30
2019-05-01T07:40:32.731Z,39.40
2019-05-01T07:42:58.959Z,40.10
2019-05-01T07:45:26.641Z,39.30
2019-05-01T07:47:51.808Z,39.40
2019-05-01T07:50:18.043Z,39.40
2019-05-01T07:52:47.797Z,39.40
2019-05-01T07:55:13.013Z,39.40
2019-05-01T07:57:39.491Z,39.50
2019-05-01T08:00:07.911Z,39.60
2019-05-01T08:02:31.166Z,39.50
2019-05-01T08:04:55.817Z,39.40
2019-05-01T08:07:22.047Z,39.60
2019-05-01T08:09:50.338Z,39.50
2019-05-01T08:12:14.565Z,40.20
2019-05-01T08:14:40.719Z,39.50
2019-05-01T08:17:06.937Z,39.50
2019-05-01T08:19:34.692Z,39.50
2019-05-01T08:22:01.810Z,39.60
2019-05-01T08:24:25.630Z,39.60
2019-05-01T08:26:51.853Z,39.60
2019-05-01T08:29:19.301Z,39.60
2019-05-01T08:31:45.537Z,39.60
2019-05-01T08:34:11.769Z,39.70
2019-05-01T08:36:37.986Z,39.60
2019-05-01T08:39:05.019Z,39.70
2019-05-01T08:41:31.857Z,39.70
2019-05-01T08:43:56.660Z,39.60
2019-05-01T08:46:24.857Z,39.70
2019-05-01T08:48:49.120Z,39.70
2019-05-01T08:51:15.345Z,39.70
2019-05-01T08:53:41.573Z,39.60
2019-05-01T08:56:09.767Z,39.70
2019-05-01T08:58:34.025Z,39.80
2019-05-01T09:01:00.177Z,39.80
2019-05-01T09:03:26.481Z,39.80
2019-05-01T09:05:57.566Z,39.70
2019-05-01T09:08:19.353Z,39.80
2019-05-01T09:10:45.573Z,39.90
2019-05-01T09:13:11.799Z,39.80
2019-05-01T09:15:38.033Z,39.80
2019-05-01T09:18:04.278Z,39.90
2019-05-01T09:20:30.489Z,39.80
2019-05-01T09:22:56.709Z,39.80
2019-05-01T09:25:22.932Z,39.90
2019-05-01T09:27:49.161Z,39.90
2019-05-01T09:30:15.398Z,39.80
2019-05-01T09:32:46.018Z,39.90
2019-05-01T09:35:15.419Z,39.90
2019-05-01T09:37:34.082Z,40.00
2019-05-01T09:40:04.180Z,40.00
2019-05-01T09:42:26.518Z,40.00
2019-05-01T09:44:52.745Z,40.00
2019-05-01T09:47:18.973Z,39.90
2019-05-01T09:49:48.869Z,40.00
2019-05-01T09:52:11.420Z,40.00
2019-05-01T09:54:42.882Z,40.00
2019-05-01T09:57:05.929Z,40.00
2019-05-01T09:59:32.114Z,40.10
2019-05-01T10:01:58.273Z,40.00
2019-05-01T10:04:25.341Z,39.90
2019-05-01T10:06:52.338Z,39.90
2019-05-01T10:09:18.044Z,40.00
2019-05-01T10:11:43.308Z,40.00
2019-05-01T10:14:09.516Z,40.00
2019-05-01T10:16:35.738Z,40.00
2019-05-01T10:19:01.968Z,40.10
2019-05-01T10:21:28.974Z,40.20
2019-05-01T10:23:54.439Z,40.10
2019-05-01T10:26:24.094Z,40.10
2019-05-01T10:28:50.041Z,40.10
2019-05-01T10:31:13.243Z,40.20
2019-05-01T10:33:39.330Z,40.20
2019-05-01T10:36:05.559Z,40.10
2019-05-01T10:38:31.784Z,40.10
2019-05-01T10:40:58.023Z,40.20
2019-05-01T10:43:24.247Z,40.30
2019-05-01T10:45:50.461Z,40.30
2019-05-01T10:48:16.705Z,40.30
2019-05-01T10:50:42.917Z,40.30
2019-05-01T10:53:09.146Z,40.30
2019-05-01T10:55:35.312Z,40.20
2019-05-01T10:58:03.307Z,40.30
2019-05-01T11:00:27.833Z,40.40
2019-05-01T11:02:54.053Z,40.40
2019-05-01T11:05:20.281Z,40.30
2019-05-01T11:07:46.535Z,40.30
2019-05-01T11:10:12.737Z,40.30
2019-05-01T11:12:40.854Z,40.30
2019-05-01T11:15:07.254Z,40.30
2019-05-01T11:17:33.464Z,40.30
2019-05-01T11:19:59.692Z,40.30
2019-05-01T11:22:25.930Z,40.50
2019-05-01T11:24:52.151Z,40.50
2019-05-01T11:27:18.381Z,40.40
2019-05-01T11:29:44.600Z,40.30
2019-05-01T11:32:10.828Z,40.30
2019-05-01T11:34:37.049Z,40.40
2019-05-01T11:37:03.291Z,40.40
2019-05-01T11:39:29.505Z,40.50
2019-05-01T11:41:55.732Z,40.40
2019-05-01T11:44:21.960Z,40.30
2019-05-01T11:46:48.195Z,40.40
2019-05-01T11:49:14.458Z,40.30
2019-05-01T11:51:40.643Z,40.40
2019-05-01T11:54:06.870Z,40.40
2019-05-01T11:56:33.027Z,40.50
2019-05-01T11:58:59.238Z,40.60
2019-05-01T12:01:25.563Z,40.40
2019-05-01T12:03:51.792Z,40.40
2019-05-01T12:06:23.035Z,40.50
2019-05-01T12:08:44.232Z,40.50
2019-05-01T12:11:10.458Z,40.70
2019-05-01T12:13:43.500Z,40.50
2019-05-01T12:16:02.912Z,40.60
2019-05-01T12:18:29.142Z,40.50
2019-05-01T12:20:55.396Z,40.50
2019-05-01T12:23:21.596Z,40.70
2019-05-01T12:25:47.819Z,40.70
2019-05-01T12:28:14.054Z,40.70
2019-05-01T12:30:40.285Z,40.80
2019-05-01T12:33:06.510Z,40.70
2019-05-01T12:35:32.730Z,40.70
2019-05-01T12:37:58.955Z,40.60
2019-05-01T12:40:25.231Z,40.70
2019-05-01T12:42:51.437Z,40.90
2019-05-01T12:45:17.647Z,40.90
2019-05-01T12:47:43.870Z,40.80
2019-05-01T12:50:10.114Z,40.80
2019-05-01T12:52:36.316Z,40.80
2019-05-01T12:55:02.550Z,40.90
2019-05-01T12:57:28.797Z,40.80
2019-05-01T13:00:08.083Z,40.90
2019-05-01T13:02:22.474Z,40.90
2019-05-01T13:04:48.691Z,40.80
2019-05-01T13:07:14.925Z,40.80
2019-05-01T13:09:41.157Z,40.90
2019-05-01T13:12:07.389Z,40.70
2019-05-01T13:14:33.597Z,40.80
2019-05-01T13:16:59.841Z,40.90
2019-05-01T13:19:26.060Z,40.90
2019-05-01T13:21:52.291Z,40.90
2019-05-01T13:24:18.512Z,41.00
2019-05-01T13:26:44.756Z,40.90
2019-05-01T13:29:10.968Z,41.10
2019-05-01T13:31:37.199Z,41.10
2019-05-01T13:34:03.429Z,41.00
2019-05-01T13:36:29.660Z,41.00
2019-05-01T13:38:55.889Z,41.10
2019-05-01T13:41:22.105Z,41.10
2019-05-01T13:43:48.358Z,41.10
2019-05-01T13:46:14.570Z,41.10
2019-05-01T13:48:40.797Z,41.10
2019-05-01T13:51:07.027Z,41.10
2019-05-01T13:53:33.248Z,41.10
2019-05-01T13:55:59.482Z,41.20
2019-05-01T13:58:25.710Z,41.20
2019-05-01T14:00:51.942Z,41.20
2019-05-01T14:03:18.686Z,41.10
2019-05-01T14:05:45.218Z,41.10
2019-05-01T14:08:11.446Z,41.10
2019-05-01T14:10:37.697Z,41.10
2019-05-01T14:13:03.902Z,41.10
2019-05-01T14:15:30.139Z,41.00
2019-05-01T14:17:56.363Z,41.00
2019-05-01T14:20:22.615Z,41.00
2019-05-01T14:22:48.831Z,41.10
2019-05-01T14:25:15.049Z,41.10
2019-05-01T14:27:41.428Z,41.00
2019-05-01T14:30:07.837Z,41.10
2019-05-01T14:32:34.145Z,41.00
2019-05-01T14:35:00.385Z,40.90
2019-05-01T14:37:29.850Z,40.90
2019-05-01T14:39:52.833Z,40.90
2019-05-01T14:42:19.070Z,41.00
2019-05-01T14:44:45.300Z,40.90
2019-05-01T14:47:11.518Z,40.90
2019-05-01T14:49:37.758Z,40.90
2019-05-01T14:52:03.989Z,40.90
2019-05-01T14:54:30.208Z,41.00
2019-05-01T14:56:56.463Z,41.00
2019-05-01T14:59:22.665Z,41.00
2019-05-01T15:01:48.903Z,41.00
2019-05-01T15:04:15.117Z,41.10
2019-05-01T15:06:41.361Z,41.00
2019-05-01T15:09:08.000Z,40.90
2019-05-01T15:11:34.212Z,41.00
2019-05-01T15:14:00.444Z,41.10
2019-05-01T15:16:26.673Z,41.00
2019-05-01T15:18:52.923Z,41.20
2019-05-01T15:21:19.145Z,41.10
2019-05-01T15:23:53.314Z,41.00
2019-05-01T15:26:11.594Z,41.00
2019-05-01T15:28:37.815Z,41.10
2019-05-01T15:31:04.060Z,41.10
2019-05-01T15:33:30.344Z,41.20
2019-05-01T15:35:56.948Z,41.10
2019-05-01T15:38:24.381Z,41.00
2019-05-01T15:40:51.313Z,41.00
2019-05-01T15:43:17.654Z,41.10
2019-05-01T15:45:43.876Z,41.10
2019-05-01T15:48:10.105Z,41.10
2019-05-01T15:50:36.332Z,41.10
2019-05-01T15:53:02.577Z,41.10
2019-05-01T15:55:28.776Z,41.20
2019-05-01T15:57:55.024Z,41.10
2019-05-01T16:00:21.249Z,41.10
2019-05-01T16:02:47.484Z,41.20
2019-05-01T16:05:13.746Z,41.20
2019-05-01T16:07:40.345Z,41.20
2019-05-01T16:10:06.569Z,41.20
2019-05-01T16:12:32.720Z,41.20
2019-05-01T16:14:58.921Z,41.20
2019-05-01T16:17:25.273Z,41.20
2019-05-01T16:19:51.501Z,41.20
2019-05-01T16:22:17.746Z,41.30
2019-05-01T16:24:43.948Z,41.20
2019-05-01T16:27:10.298Z,41.20
2019-05-01T16:29:36.812Z,41.20
2019-05-01T16:32:03.369Z,41.30
2019-05-01T16:34:30.512Z,41.30
2019-05-01T16:39:28.743Z,41.30
2019-05-01T16:41:54.953Z,41.20
2019-05-01T16:44:26.480Z,41.30
2019-05-01T16:46:52.706Z,41.30
2019-05-01T16:51:54.422Z,41.30
2019-05-01T16:56:58.604Z,41.20
2019-05-01T16:59:29.475Z,41.20
2019-05-01T17:09:33.297Z,41.20
2019-05-01T17:22:23.506Z,41.20
2019-05-01T17:27:26.552Z,41.30
2019-05-01T17:32:29.093Z,41.30
2019-05-01T17:34:57.248Z,41.30
2019-05-01T17:37:24.308Z,41.30
2019-05-01T17:39:56.137Z,41.20
2019-05-01T17:47:37.604Z,41.20
2019-05-01T17:57:52.378Z,41.30
2019-05-01T18:00:21.214Z,41.40
2019-05-01T18:02:49.285Z,41.40
2019-05-01T18:18:10.749Z,41.50
2019-05-01T18:23:13.557Z,41.50
2019-05-01T18:25:40.660Z,41.50
2019-05-01T18:28:10.883Z,41.40
2019-05-01T18:35:49.219Z,41.40
2019-05-01T18:40:48.237Z,41.40
2019-05-01T18:43:19.402Z,41.40
2019-05-01T18:53:26.148Z,41.50
2019-05-01T18:56:01.408Z,41.50
2019-05-01T19:03:37.209Z,42.30
2019-05-01T19:13:42.841Z,41.90
2019-05-01T19:21:15.874Z,41.90
2019-05-01T19:26:17.979Z,41.90
2019-05-01T19:45:43.185Z,42.30
2019-05-01T19:48:10.717Z,42.20
2019-05-01T19:58:27.516Z,41.90
2019-05-01T20:00:57.301Z,42.00
2019-05-01T20:11:03.186Z,41.90
2019-05-01T20:26:12.665Z,41.70
2019-05-01T20:36:20.300Z,41.70
2019-05-01T20:38:47.310Z,41.70
2019-05-01T20:41:20.059Z,41.70
2019-05-01T20:43:59.005Z,41.60
2019-05-01T21:24:48.565Z,41.60
2019-05-01T21:27:15.529Z,41.70
2019-05-01T21:32:18.259Z,41.60
2019-05-01T21:42:42.866Z,41.30
2019-05-01T21:45:12.858Z,41.30
2019-05-01T21:55:30.107Z,41.50
2019-05-01T21:57:56.298Z,41.50
2019-05-01T22:02:59.783Z,41.30
2019-05-01T22:23:21.843Z,41.20
2019-05-01T22:25:53.426Z,41.30
2019-05-01T22:28:28.974Z,41.30
2019-05-01T22:36:05.871Z,41.30
2019-05-01T22:38:35.541Z,41.10
2019-05-01T22:41:06.923Z,41.10
2019-05-01T22:43:34.648Z,41.20
2019-05-01T22:46:07.851Z,41.10
2019-05-01T22:48:34.721Z,41.10
2019-05-01T22:56:18.586Z,41.00
2019-05-01T22:58:46.732Z,41.00
2019-05-01T23:08:52.622Z,41.00
2019-05-01T23:19:00.401Z,41.00
2019-05-01T23:29:15.504Z,40.90
2019-05-01T23:46:54.740Z,40.80
